createdAt,value
2019-03-29T00:00:46.732Z,8.19
2019-03-29T00:03:14.534Z,8.24
2019-03-29T00:05:42.209Z,8.39
2019-03-29T00:08:09.829Z,8.35
2019-03-29T00:10:37.509Z,8.36
2019-03-29T00:13:05.524Z,8.25
2019-03-29T00:15:34.043Z,8.23
2019-03-29T00:18:02.165Z,8.14
2019-03-29T00:20:29.887Z,8.15
2019-03-29T00:22:57.668Z,8.09
2019-03-29T00:25:25.391Z,8.07
2019-03-29T00:27:53.278Z,8.02
2019-03-29T00:30:21.405Z,7.99
2019-03-29T00:32:50.199Z,7.93
2019-03-29T00:35:17.998Z,7.87
2019-03-29T00:37:53.352Z,7.82
2019-03-29T00:40:15.554Z,7.78
2019-03-29T00:42:43.446Z,7.79
2019-03-29T00:45:11.414Z,7.80
2019-03-29T00:47:39.048Z,7.80
2019-03-29T00:50:07.083Z,7.77
2019-03-29T00:52:35.058Z,7.79
2019-03-29T00:55:02.657Z,7.81
2019-03-29T00:57:30.983Z,7.84
2019-03-29T00:59:58.849Z,7.82
2019-03-29T01:02:26.609Z,7.77
2019-03-29T01:04:55.001Z,7.72
2019-03-29T01:07:22.881Z,7.65
2019-03-29T01:09:50.621Z,7.60
2019-03-29T01:12:18.353Z,7.59
2019-03-29T01:14:46.084Z,7.58
2019-03-29T01:17:13.806Z,7.55
2019-03-29T01:19:41.549Z,7.47
2019-03-29T01:22:09.517Z,7.40
2019-03-29T01:24:37.251Z,7.47
2019-03-29T01:27:05.009Z,7.59
2019-03-29T01:29:32.739Z,7.54
2019-03-29T01:32:00.449Z,7.46
2019-03-29T01:34:28.196Z,7.42
2019-03-29T01:36:55.887Z,7.43
2019-03-29T01:39:23.646Z,7.41
2019-03-29T01:41:51.418Z,7.39
2019-03-29T01:44:19.116Z,7.35
2019-03-29T01:46:46.745Z,7.35
2019-03-29T01:49:15.309Z,7.34
2019-03-29T01:51:43.840Z,7.29
2019-03-29T01:54:11.864Z,7.27
2019-03-29T01:56:40.249Z,7.21
2019-03-29T01:59:08.708Z,7.17
2019-03-29T02:01:36.874Z,7.13
2019-03-29T02:04:06.051Z,7.13
2019-03-29T02:06:34.118Z,7.08
2019-03-29T02:09:01.838Z,7.04
2019-03-29T02:11:32.027Z,7.01
2019-03-29T02:14:00.209Z,7.03
2019-03-29T02:16:27.908Z,7.03
2019-03-29T02:18:55.665Z,7.05
2019-03-29T02:21:24.255Z,7.12
2019-03-29T02:23:52.323Z,7.14
2019-03-29T02:26:20.034Z,7.18
2019-03-29T02:28:48.016Z,7.19
2019-03-29T02:31:15.966Z,7.18
2019-03-29T02:33:43.706Z,7.19
2019-03-29T02:36:11.429Z,7.18
2019-03-29T02:38:54.189Z,7.18
2019-03-29T02:41:08.770Z,7.17
2019-03-29T02:43:37.568Z,7.21
2019-03-29T02:46:06.190Z,7.26
2019-03-29T02:48:34.292Z,7.34
2019-03-29T02:51:01.918Z,7.35
2019-03-29T02:53:29.985Z,7.36
2019-03-29T02:55:57.728Z,7.32
2019-03-29T02:58:25.479Z,7.32
2019-03-29T03:00:53.209Z,7.30
2019-03-29T03:03:20.970Z,7.29
2019-03-29T03:05:48.706Z,7.27
2019-03-29T03:08:16.441Z,7.25
2019-03-29T03:10:44.150Z,7.22
2019-03-29T03:13:11.871Z,7.18
2019-03-29T03:15:39.519Z,7.14
2019-03-29T03:18:07.499Z,7.07
2019-03-29T03:20:35.191Z,7.03
2019-03-29T03:23:02.896Z,7.08
2019-03-29T03:25:30.657Z,7.12
2019-03-29T03:27:58.403Z,7.29
2019-03-29T03:30:26.136Z,7.29
2019-03-29T03:32:53.880Z,7.20
2019-03-29T03:35:21.587Z,7.19
2019-03-29T03:37:50.207Z,7.13
2019-03-29T03:40:18.055Z,7.06
2019-03-29T03:42:45.836Z,7.05
2019-03-29T03:45:13.612Z,6.98
2019-03-29T03:47:41.569Z,6.93
2019-03-29T03:50:34.644Z,7.04
2019-03-29T03:53:02.475Z,7.09
2019-03-29T03:55:30.876Z,7.08
2019-03-29T03:57:59.408Z,7.02
2019-03-29T04:00:35.926Z,7.04
2019-03-29T04:03:03.950Z,7.01
2019-03-29T04:05:31.678Z,7.03
2019-03-29T04:07:59.335Z,7.03
2019-03-29T04:10:27.071Z,7.04
2019-03-29T04:12:54.718Z,7.02
2019-03-29T04:15:22.448Z,7.08
2019-03-29T04:17:50.449Z,7.08
2019-03-29T04:20:18.200Z,7.16
2019-03-29T04:22:45.936Z,7.15
2019-03-29T04:25:13.652Z,7.11
2019-03-29T04:27:41.419Z,7.04
2019-03-29T04:30:09.159Z,7.00
2019-03-29T04:32:37.232Z,6.99
2019-03-29T04:35:05.156Z,6.96
2019-03-29T04:37:32.924Z,6.95
2019-03-29T04:40:07.940Z,6.92
2019-03-29T04:42:30.681Z,6.91
2019-03-29T04:45:00.015Z,6.89
2019-03-29T04:47:27.965Z,6.86
2019-03-29T04:49:55.689Z,6.85
2019-03-29T04:52:23.435Z,6.79
2019-03-29T04:54:51.082Z,6.79
2019-03-29T04:57:19.621Z,6.75
2019-03-29T04:59:47.293Z,6.76
2019-03-29T05:02:15.724Z,6.73
2019-03-29T05:04:44.555Z,6.75
2019-03-29T05:07:12.287Z,6.74
2019-03-29T05:09:40.029Z,6.69
2019-03-29T05:12:07.740Z,6.69
2019-03-29T05:14:35.510Z,6.70
2019-03-29T05:17:03.621Z,6.75
2019-03-29T05:19:31.351Z,6.79
2019-03-29T05:21:59.118Z,6.87
2019-03-29T05:24:26.888Z,6.96
2019-03-29T05:26:55.115Z,7.05
2019-03-29T05:29:22.869Z,7.13
2019-03-29T05:31:53.700Z,7.21
2019-03-29T05:34:21.478Z,7.31
2019-03-29T05:36:49.784Z,7.39
2019-03-29T05:39:17.520Z,7.52
2019-03-29T05:41:45.623Z,7.74
2019-03-29T05:44:13.425Z,8.46
2019-03-29T05:46:41.154Z,9.52
2019-03-29T05:49:08.952Z,10.83
2019-03-29T05:51:36.683Z,12.14
2019-03-29T05:54:04.408Z,13.25
2019-03-29T05:56:32.130Z,14.51
2019-03-29T05:58:59.873Z,16.11
2019-03-29T06:01:27.576Z,17.70
2019-03-29T06:03:55.307Z,18.90
2019-03-29T06:06:23.004Z,19.86
2019-03-29T06:08:50.734Z,21.03
2019-03-29T06:11:18.777Z,22.04
2019-03-29T06:13:46.648Z,22.92
2019-03-29T06:16:14.298Z,23.70
2019-03-29T06:18:42.031Z,24.68
2019-03-29T06:21:09.774Z,25.61
2019-03-29T06:23:37.428Z,26.48
2019-03-29T06:26:05.172Z,27.33
2019-03-29T06:28:32.791Z,27.84
2019-03-29T06:31:00.881Z,28.40
2019-03-29T06:33:28.574Z,29.11
2019-03-29T06:36:27.856Z,29.77
2019-03-29T06:42:30.175Z,31.07
2019-03-29T06:44:57.907Z,32.10
2019-03-29T06:47:25.675Z,32.89
2019-03-29T06:49:53.399Z,33.14
2019-03-29T06:55:21.224Z,34.13
2019-03-29T06:57:48.990Z,34.46
2019-03-29T07:00:16.812Z,34.73
2019-03-29T07:02:44.632Z,35.13
2019-03-29T07:05:12.252Z,35.67
2019-03-29T07:08:20.594Z,36.00
2019-03-29T07:10:48.311Z,36.20
2019-03-29T07:13:35.293Z,36.62
2019-03-29T07:16:03.168Z,36.78
2019-03-29T07:18:30.898Z,37.44
2019-03-29T07:23:39.776Z,37.51
2019-03-29T07:26:07.429Z,37.99
2019-03-29T07:28:35.326Z,38.27
2019-03-29T07:31:03.427Z,38.73
2019-03-29T07:33:31.457Z,39.54
2019-03-29T07:35:59.696Z,40.10
2019-03-29T07:38:28.277Z,40.17
2019-03-29T07:40:56.463Z,40.39
2019-03-29T07:43:24.475Z,40.56
2019-03-29T07:45:52.373Z,38.99
2019-03-29T07:48:20.095Z,38.74
2019-03-29T07:50:47.877Z,38.27
2019-03-29T07:53:15.922Z,38.57
2019-03-29T07:55:43.670Z,39.03
2019-03-29T07:58:11.964Z,39.65
2019-03-29T08:00:39.929Z,40.05
2019-03-29T08:03:07.961Z,39.51
2019-03-29T08:05:38.122Z,38.84
2019-03-29T08:08:05.968Z,38.40
2019-03-29T08:10:34.014Z,38.49
2019-03-29T08:13:01.987Z,38.61
2019-03-29T08:15:29.859Z,38.86
2019-03-29T08:18:01.610Z,39.03
2019-03-29T08:20:49.470Z,39.13
2019-03-29T08:23:17.094Z,39.15
2019-03-29T08:26:25.462Z,38.99
2019-03-29T08:28:53.455Z,39.39
2019-03-29T08:31:40.793Z,37.98
2019-03-29T08:34:08.414Z,36.44
2019-03-29T08:36:55.728Z,35.69
2019-03-29T08:39:28.066Z,34.36
2019-03-29T08:42:11.649Z,34.78
2019-03-29T08:47:19.778Z,35.24
2019-03-29T08:52:28.176Z,36.92
2019-03-29T08:55:17.429Z,36.11
2019-03-29T08:58:10.558Z,36.55
2019-03-29T09:00:38.314Z,37.85
2019-03-29T09:03:06.003Z,37.36
2019-03-29T09:08:15.070Z,36.13
2019-03-29T09:10:42.821Z,35.01
2019-03-29T09:13:29.718Z,34.91
2019-03-29T09:15:57.394Z,34.68
2019-03-29T09:18:26.172Z,34.97
2019-03-29T09:21:20.541Z,34.54
2019-03-29T09:23:48.306Z,35.35
2019-03-29T09:26:16.029Z,34.60
2019-03-29T09:28:43.802Z,33.69
2019-03-29T09:31:11.544Z,32.79
2019-03-29T09:33:51.557Z,32.93
2019-03-29T09:36:19.168Z,33.76
2019-03-29T09:41:49.547Z,32.04
2019-03-29T09:44:17.578Z,28.31
2019-03-29T09:46:45.250Z,26.17
2019-03-29T09:49:12.986Z,24.16
2019-03-29T09:51:40.756Z,23.05
2019-03-29T09:54:08.496Z,21.51
2019-03-29T09:56:39.126Z,21.03
2019-03-29T09:59:05.941Z,20.74
2019-03-29T10:01:33.811Z,19.65
2019-03-29T10:04:01.689Z,18.93
2019-03-29T10:06:29.755Z,18.47
2019-03-29T10:08:57.577Z,18.31
2019-03-29T10:11:25.321Z,18.17
2019-03-29T10:13:53.029Z,17.94
2019-03-29T10:16:20.767Z,18.03
2019-03-29T10:18:48.662Z,17.87
2019-03-29T10:21:17.431Z,17.81
2019-03-29T10:23:45.710Z,17.66
2019-03-29T10:26:13.521Z,17.54
2019-03-29T10:28:41.105Z,17.23
2019-03-29T10:31:08.803Z,17.04
2019-03-29T10:33:36.441Z,17.31
2019-03-29T10:36:04.586Z,17.61
2019-03-29T10:38:32.294Z,17.66
2019-03-29T10:41:00.350Z,17.66
2019-03-29T10:43:28.049Z,17.76
2019-03-29T10:45:55.878Z,18.05
2019-03-29T10:48:23.632Z,18.36
2019-03-29T10:50:51.312Z,18.40
2019-03-29T10:53:19.052Z,18.77
2019-03-29T10:55:46.830Z,19.12
2019-03-29T10:58:14.532Z,19.33
2019-03-29T11:00:42.256Z,19.37
2019-03-29T11:03:10.024Z,19.35
2019-03-29T11:05:38.176Z,18.99
2019-03-29T11:08:06.334Z,19.01
2019-03-29T11:10:34.860Z,19.32
2019-03-29T11:13:12.662Z,19.61
2019-03-29T11:15:33.341Z,19.81
2019-03-29T11:18:01.001Z,20.15
2019-03-29T11:20:29.015Z,20.20
2019-03-29T11:22:56.732Z,20.46
2019-03-29T11:25:24.519Z,20.10
2019-03-29T11:27:52.217Z,19.26
2019-03-29T11:30:20.065Z,18.28
2019-03-29T11:32:47.679Z,17.77
2019-03-29T11:35:15.579Z,17.33
2019-03-29T11:37:43.680Z,16.98
2019-03-29T11:40:12.187Z,16.63
2019-03-29T11:42:39.885Z,16.37
2019-03-29T11:45:07.794Z,16.31
2019-03-29T11:47:35.556Z,16.50
2019-03-29T11:50:03.372Z,16.39
2019-03-29T11:52:33.828Z,16.16
2019-03-29T11:55:01.732Z,16.09
2019-03-29T11:57:29.334Z,15.83
2019-03-29T11:59:57.404Z,15.62
2019-03-29T12:02:31.423Z,15.72
2019-03-29T12:04:55.177Z,15.85
2019-03-29T12:07:22.869Z,15.90
2019-03-29T12:09:50.658Z,15.90
2019-03-29T12:12:18.714Z,15.94
2019-03-29T12:14:46.546Z,16.05
2019-03-29T12:17:14.775Z,16.18
2019-03-29T12:19:42.827Z,16.16
2019-03-29T12:22:10.565Z,16.10
2019-03-29T12:24:38.923Z,16.13
2019-03-29T12:27:06.653Z,16.22
2019-03-29T12:29:34.419Z,16.18
2019-03-29T12:32:02.524Z,16.17
2019-03-29T12:34:30.335Z,16.32
2019-03-29T12:36:58.081Z,16.43
2019-03-29T12:39:25.821Z,16.42
2019-03-29T12:41:53.585Z,16.38
2019-03-29T12:44:21.243Z,16.46
2019-03-29T12:46:48.865Z,16.42
2019-03-29T12:49:16.509Z,16.59
2019-03-29T12:51:46.681Z,16.73
2019-03-29T12:54:14.241Z,16.79
2019-03-29T12:56:42.211Z,16.61
2019-03-29T12:59:10.046Z,16.56
2019-03-29T13:01:39.694Z,16.65
2019-03-29T13:04:09.773Z,16.73
2019-03-29T13:06:37.470Z,16.78
2019-03-29T13:09:07.285Z,16.59
2019-03-29T13:11:36.735Z,16.58
2019-03-29T13:14:10.436Z,16.54
2019-03-29T13:16:34.520Z,16.45
2019-03-29T13:19:02.635Z,16.37
2019-03-29T13:21:30.388Z,16.44
2019-03-29T13:23:58.160Z,16.54
2019-03-29T13:26:25.919Z,16.58
2019-03-29T13:28:53.766Z,16.68
2019-03-29T13:31:21.440Z,16.80
2019-03-29T13:33:49.504Z,16.99
2019-03-29T13:36:17.352Z,17.00
2019-03-29T13:38:45.116Z,17.01
2019-03-29T13:41:12.874Z,17.09
2019-03-29T13:43:40.626Z,17.13
2019-03-29T13:46:08.470Z,17.28
2019-03-29T13:48:36.183Z,17.25
2019-03-29T13:51:03.878Z,17.25
2019-03-29T13:53:32.080Z,17.24
2019-03-29T13:55:59.826Z,17.26
2019-03-29T13:58:28.416Z,17.07
2019-03-29T14:00:56.183Z,17.06
2019-03-29T14:03:23.880Z,17.14
2019-03-29T14:05:51.545Z,16.97
2019-03-29T14:08:19.304Z,16.90
2019-03-29T14:10:47.052Z,16.96
2019-03-29T14:13:14.782Z,17.05
2019-03-29T14:15:42.607Z,17.14
2019-03-29T14:18:10.256Z,17.14
2019-03-29T14:20:37.948Z,17.24
2019-03-29T14:23:06.085Z,17.26
2019-03-29T14:25:33.848Z,17.26
2019-03-29T14:28:01.683Z,17.22
2019-03-29T14:30:29.424Z,17.31
2019-03-29T14:32:57.149Z,17.17
2019-03-29T14:35:24.869Z,17.13
2019-03-29T14:37:52.678Z,17.04
2019-03-29T14:40:20.920Z,17.01
2019-03-29T14:42:48.663Z,16.96
2019-03-29T14:45:16.398Z,16.88
2019-03-29T14:47:44.102Z,16.82
2019-03-29T14:50:12.056Z,16.78
2019-03-29T14:52:39.901Z,16.75
2019-03-29T14:55:08.339Z,16.74
2019-03-29T14:57:36.064Z,16.86
2019-03-29T15:00:05.439Z,16.89
2019-03-29T15:02:33.420Z,17.14
2019-03-29T15:05:01.035Z,17.04
2019-03-29T15:07:29.722Z,16.98
2019-03-29T15:09:57.546Z,17.11
2019-03-29T15:12:25.365Z,17.15
2019-03-29T15:15:05.423Z,17.13
2019-03-29T15:17:22.931Z,17.19
2019-03-29T15:19:50.636Z,17.11
2019-03-29T15:22:18.899Z,17.00
2019-03-29T15:24:46.657Z,16.93
2019-03-29T15:27:14.379Z,16.82
2019-03-29T15:29:43.165Z,16.77
2019-03-29T15:32:10.938Z,16.82
2019-03-29T15:34:39.359Z,16.98
2019-03-29T15:37:13.426Z,16.97
2019-03-29T15:39:42.073Z,16.89
2019-03-29T15:42:09.804Z,16.91
2019-03-29T15:44:37.726Z,17.08
2019-03-29T15:47:24.635Z,16.88
2019-03-29T15:50:04.545Z,16.77
2019-03-29T15:52:32.315Z,16.74
2019-03-29T15:55:12.132Z,16.85
2019-03-29T16:01:00.968Z,16.94
2019-03-29T16:03:29.069Z,16.92
2019-03-29T16:05:56.721Z,16.97
2019-03-29T16:17:00.353Z,16.82
2019-03-29T16:19:28.247Z,16.77
2019-03-29T16:21:56.055Z,16.62
2019-03-29T16:24:35.955Z,16.63
2019-03-29T16:30:48.849Z,16.31
2019-03-29T16:33:16.455Z,16.25
2019-03-29T16:35:44.090Z,16.43
2019-03-29T16:38:11.862Z,16.47
2019-03-29T16:40:39.603Z,16.41
2019-03-29T16:43:07.340Z,16.38
2019-03-29T16:45:47.115Z,16.25
2019-03-29T16:51:25.291Z,16.32
2019-03-29T16:53:53.144Z,16.37
2019-03-29T16:56:20.937Z,16.26
2019-03-29T16:58:48.745Z,16.33
2019-03-29T17:01:16.527Z,16.24
2019-03-29T17:03:44.250Z,16.14
2019-03-29T17:06:12.009Z,15.89
2019-03-29T17:11:42.199Z,15.55
2019-03-29T17:14:09.936Z,15.37
2019-03-29T17:16:37.726Z,15.19
2019-03-29T17:19:05.823Z,15.03
2019-03-29T17:32:56.681Z,14.66
2019-03-29T17:35:24.756Z,14.56
2019-03-29T17:37:52.501Z,14.47
2019-03-29T17:41:00.808Z,14.51
2019-03-29T17:43:29.546Z,14.36
2019-03-29T17:45:57.292Z,14.30
2019-03-29T17:48:44.227Z,14.16
2019-03-29T17:51:11.971Z,14.02
2019-03-29T17:53:39.727Z,13.81
2019-03-29T17:56:07.505Z,13.59
2019-03-29T17:58:35.275Z,13.46
2019-03-29T18:01:05.076Z,13.33
2019-03-29T18:03:45.171Z,13.18
2019-03-29T18:06:13.270Z,13.09
2019-03-29T18:08:41.034Z,13.03
2019-03-29T18:13:50.014Z,12.84
2019-03-29T18:16:37.050Z,12.84
2019-03-29T18:22:04.622Z,12.70
2019-03-29T18:24:51.654Z,12.68
2019-03-29T18:27:19.519Z,12.63
2019-03-29T18:29:47.707Z,12.51
2019-03-29T18:32:15.818Z,12.39
2019-03-29T18:35:02.869Z,12.34
2019-03-29T18:38:12.921Z,12.26
2019-03-29T18:40:59.861Z,12.50
2019-03-29T18:43:27.893Z,12.39
2019-03-29T18:46:07.914Z,12.31
2019-03-29T18:48:35.918Z,12.20
2019-03-29T18:51:03.653Z,12.20
2019-03-29T18:53:50.624Z,12.19
2019-03-29T18:56:18.379Z,12.03
2019-03-29T18:58:46.419Z,11.94
2019-03-29T19:01:14.288Z,11.90
2019-03-29T19:03:42.011Z,11.88
2019-03-29T19:06:09.786Z,11.81
2019-03-29T19:08:37.526Z,11.75
2019-03-29T19:11:05.272Z,11.75
2019-03-29T19:13:33.057Z,11.69
2019-03-29T19:16:01.113Z,11.66
2019-03-29T19:18:29.643Z,11.61
2019-03-29T19:20:57.269Z,11.63
2019-03-29T19:23:25.359Z,11.68
2019-03-29T19:25:52.987Z,11.60
2019-03-29T19:28:21.040Z,11.55
2019-03-29T19:31:08.764Z,11.74
2019-03-29T19:33:36.845Z,11.77
2019-03-29T19:36:04.599Z,11.71
2019-03-29T19:38:32.361Z,11.78
2019-03-29T19:41:00.094Z,11.75
2019-03-29T19:43:27.885Z,11.67
2019-03-29T19:48:38.979Z,11.58
2019-03-29T19:51:06.755Z,11.43
2019-03-29T19:53:34.543Z,11.36
2019-03-29T19:56:49.574Z,11.36
2019-03-29T19:59:17.306Z,11.36
2019-03-29T20:01:45.047Z,11.54
2019-03-29T20:04:13.646Z,11.72
2019-03-29T20:12:45.187Z,11.77
2019-03-29T20:15:53.439Z,11.81
2019-03-29T20:18:21.058Z,11.80
2019-03-29T20:20:48.704Z,11.85
2019-03-29T20:23:35.560Z,11.85
2019-03-29T20:26:04.077Z,11.89
2019-03-29T20:28:32.140Z,11.91
2019-03-29T20:30:59.884Z,11.91
2019-03-29T20:33:27.575Z,11.91
2019-03-29T20:35:55.212Z,11.88
2019-03-29T20:38:42.125Z,11.78
2019-03-29T20:44:11.576Z,11.52
2019-03-29T20:46:39.390Z,11.44
2019-03-29T20:54:49.755Z,11.44
2019-03-29T20:57:36.801Z,11.43
2019-03-29T21:03:18.343Z,11.11
2019-03-29T21:05:46.025Z,10.90
2019-03-29T21:11:00.893Z,10.54
2019-03-29T21:13:28.772Z,10.34
2019-03-29T21:16:16.293Z,10.24
2019-03-29T21:18:44.331Z,10.05
2019-03-29T21:21:12.046Z,9.88
2019-03-29T21:23:39.838Z,9.74
2019-03-29T21:29:07.573Z,9.53
2019-03-29T21:31:35.335Z,9.48
2019-03-29T21:37:04.050Z,9.24
2019-03-29T21:39:31.803Z,9.10
2019-03-29T21:41:59.561Z,9.01
2019-03-29T21:44:46.910Z,8.96
2019-03-29T21:47:14.950Z,8.89
2019-03-29T21:49:42.733Z,8.83
2019-03-29T21:52:10.493Z,8.79
2019-03-29T21:54:38.821Z,8.74
2019-03-29T21:57:06.386Z,8.72
2019-03-29T21:59:53.392Z,8.69
2019-03-29T22:02:21.622Z,8.70
2019-03-29T22:05:19.266Z,8.71
2019-03-29T22:07:47.178Z,8.67
2019-03-29T22:10:22.630Z,8.62
2019-03-29T22:12:50.677Z,8.60
2019-03-29T22:15:18.417Z,8.58
2019-03-29T22:17:46.430Z,8.57
2019-03-29T22:23:34.547Z,8.54
2019-03-29T22:26:02.345Z,8.50
2019-03-29T22:28:29.986Z,8.42
2019-03-29T22:30:57.822Z,8.33
2019-03-29T22:33:25.435Z,8.28
2019-03-29T22:36:12.319Z,8.23
2019-03-29T22:38:39.996Z,8.14
2019-03-29T22:41:07.721Z,8.13
2019-03-29T22:43:35.504Z,8.13
2019-03-29T22:48:52.181Z,8.13
2019-03-29T22:51:17.586Z,8.15
2019-03-29T22:54:04.536Z,8.12
2019-03-29T22:56:32.135Z,8.10
2019-03-29T22:58:59.854Z,8.15
2019-03-29T23:04:30.034Z,8.14
2019-03-29T23:09:55.475Z,8.08
2019-03-29T23:12:23.208Z,8.03
2019-03-29T23:15:10.156Z,7.96
2019-03-29T23:17:38.208Z,7.91
2019-03-29T23:23:19.094Z,7.88
2019-03-29T23:25:47.177Z,7.91
2019-03-29T23:28:34.086Z,7.95
2019-03-29T23:34:15.287Z,7.98
2019-03-29T23:37:02.264Z,7.98
2019-03-29T23:39:30.012Z,8.02
2019-03-29T23:45:16.817Z,7.96
2019-03-29T23:48:03.690Z,7.92
2019-03-29T23:50:31.327Z,7.89
2019-03-29T23:56:19.007Z,7.83
2019-03-29T23:58:58.372Z,7.82
